Time;durP1;ratioP1;P1;durP2;ratioP2;P2;SDS_P1;SDS_P2;PMS_P1;PMS_P2;Temp;Humidity;BMP_temperature;BMP_pressure;BME280_temperature;BME280_humidity;BME280_pressure;Samples;Min_cycle;Max_cycle;Signal;HPM_P1;HPM_P2
2021/12/21 00:00:11;;;;;;;14.10;4.38;;;;;;;4.40;52.95;101985.50;5021691;28;20137;-74
2021/12/21 00:02:48;;;;;;;14.63;4.40;;;;;;;4.46;52.99;101984.28;4998268;28;20066;-74
2021/12/21 00:05:19;;;;;;;10.32;4.25;;;;;;;4.48;52.69;101983.25;5001181;28;20473;-74
2021/12/21 00:07:50;;;;;;;9.48;4.00;;;;;;;4.61;52.35;101985.19;5014819;28;20453;-74
2021/12/21 00:10:20;;;;;;;15.35;4.07;;;;;;;4.62;52.21;101997.53;5017814;28;20137;-74
2021/12/21 00:13:09;;;;;;;11.35;4.35;;;;;;;4.52;52.57;101989.22;5015296;28;20112;-74
2021/12/21 00:15:54;;;;;;;11.35;4.20;;;;;;;4.28;53.24;101992.34;5017522;28;20047;-74
2021/12/21 00:18:39;;;;;;;13.52;3.97;;;;;;;4.64;52.42;101982.34;5016788;28;20145;-74
2021/12/21 00:23:38;;;;;;;12.88;4.45;;;;;;;4.73;52.33;101992.44;5015608;28;20069;-74
2021/12/21 00:26:10;;;;;;;10.30;4.30;;;;;;;4.71;52.10;101989.00;5015391;28;20128;-74
2021/12/21 00:28:58;;;;;;;11.27;4.25;;;;;;;4.60;52.18;101986.16;5015831;28;20104;-74
2021/12/21 00:31:28;;;;;;;12.65;3.92;;;;;;;4.59;52.45;101979.97;5016302;28;20049;-74
2021/12/21 00:33:55;;;;;;;13.10;3.70;;;;;;;4.51;52.66;101967.13;5016341;28;20046;-74
2021/12/21 00:36:23;;;;;;;10.07;4.00;;;;;;;4.49;53.14;101968.19;5017200;28;20096;-73
2021/12/21 00:38:51;;;;;;;13.30;3.83;;;;;;;4.29;53.57;101972.81;5016318;28;20459;-73
2021/12/21 00:41:19;;;;;;;13.00;4.10;;;;;;;4.32;53.33;101962.00;5016502;28;20074;-73
2021/12/21 00:43:45;;;;;;;11.50;3.88;;;;;;;4.52;52.87;101978.59;5014044;28;20045;-73
2021/12/21 00:46:13;;;;;;;9.30;4.43;;;;;;;4.57;52.86;101971.22;5016642;28;20045;-75
2021/12/21 00:48:48;;;;;;;8.80;3.88;;;;;;;4.62;52.85;101979.75;5016282;28;20133;-73
2021/12/21 00:51:15;;;;;;;9.57;3.78;;;;;;;4.56;52.50;101985.47;5015496;28;20096;-73
2021/12/21 00:53:42;;;;;;;9.82;3.80;;;;;;;4.56;53.01;101985.47;5016652;28;20096;-73
2021/12/21 00:56:09;;;;;;;9.98;4.13;;;;;;;4.56;53.10;101988.97;5014989;28;20482;-74
2021/12/21 00:58:35;;;;;;;12.55;4.15;;;;;;;4.71;52.60;101989.00;5016261;28;20121;-73
2021/12/21 01:01:04;;;;;;;12.98;4.60;;;;;;;4.51;53.13;101991.03;5015076;28;20124;-74
2021/12/21 01:03:33;;;;;;;12.43;5.30;;;;;;;4.71;52.75;101981.88;5016712;28;20482;-74
2021/12/21 01:06:12;;;;;;;16.00;5.00;;;;;;;4.66;52.69;101978.66;5015694;28;20042;-74
2021/12/21 01:09:09;;;;;;;19.70;5.57;;;;;;;4.60;52.66;101979.03;5016389;28;20125;-74
2021/12/21 01:11:33;;;;;;;12.30;5.90;;;;;;;4.64;52.71;101977.88;5016041;28;20046;-74
2021/12/21 01:14:25;;;;;;;12.68;5.45;;;;;;;4.52;53.09;101975.94;5017457;28;20062;-74
2021/12/21 01:17:09;;;;;;;17.60;6.13;;;;;;;4.51;53.08;101966.25;5016721;28;20424;-74
2021/12/21 01:19:41;;;;;;;15.65;6.63;;;;;;;4.48;53.35;101961.97;5015969;28;20494;-73
2021/12/21 01:22:17;;;;;;;14.77;5.88;;;;;;;4.07;54.70;101967.88;5016607;28;22942;-74
2021/12/21 01:27:42;;;;;;;17.13;7.03;;;;;;;4.02;54.83;101963.75;5017137;28;20105;-73
2021/12/21 01:30:30;;;;;;;17.23;7.53;;;;;;;4.34;53.62;101954.78;5014198;28;20391;-73
2021/12/21 01:33:05;;;;;;;19.77;7.43;;;;;;;4.21;53.89;101960.91;4996826;28;20125;-74
2021/12/21 01:35:39;;;;;;;15.05;6.55;;;;;;;4.44;53.37;101956.94;4995592;28;20137;-73
2021/12/21 01:38:20;;;;;;;14.32;6.38;;;;;;;4.32;53.73;101950.53;4995930;28;20046;-73
2021/12/21 01:43:32;;;;;;;17.60;6.28;;;;;;;4.40;53.30;101953.59;5015216;28;20467;-73
2021/12/21 01:51:31;;;;;;;14.82;6.13;;;;;;;4.44;53.03;101949.81;5015187;28;20096;-72
2021/12/21 01:53:57;;;;;;;14.82;6.15;;;;;;;4.50;52.89;101956.59;5016407;28;20133;-74
2021/12/21 01:56:24;;;;;;;20.67;7.10;;;;;;;4.43;53.01;101952.59;5016450;28;20073;-73
2021/12/21 01:58:51;;;;;;;17.95;6.75;;;;;;;4.38;53.41;101949.31;5016890;28;20073;-73
2021/12/21 02:01:20;;;;;;;17.48;7.15;;;;;;;4.55;52.94;101936.75;5017902;28;20413;-73
2021/12/21 02:03:49;;;;;;;14.43;7.05;;;;;;;4.54;53.00;101952.81;5017840;28;20054;-74
2021/12/21 02:09:48;;;;;;;12.63;6.63;;;;;;;4.69;52.50;101938.59;5004611;28;20508;-73
2021/12/21 02:12:19;;;;;;;15.30;6.93;;;;;;;4.60;52.79;101939.16;5015199;28;20125;-73
2021/12/21 02:14:53;;;;;;;22.42;7.32;;;;;;;4.60;52.42;101941.81;5012719;28;20041;-73
2021/12/21 02:20:11;;;;;;;20.05;7.03;;;;;;;4.58;52.87;101936.56;5013837;28;20038;-74
2021/12/21 02:22:44;;;;;;;13.88;6.90;;;;;;;4.54;52.73;101936.84;4999119;28;20413;-73
2021/12/21 02:28:21;;;;;;;16.50;7.10;;;;;;;4.61;52.42;101932.88;5014636;28;20072;-73
2021/12/21 02:30:52;;;;;;;16.27;6.97;;;;;;;4.64;52.46;101924.72;5015643;28;20128;-73
2021/12/21 02:33:18;;;;;;;23.80;7.88;;;;;;;4.70;52.42;101934.16;5015934;28;20069;-73
2021/12/21 02:35:45;;;;;;;22.75;8.00;;;;;;;4.74;52.02;101939.19;5015229;28;20124;-73
2021/12/21 02:38:11;;;;;;;16.95;7.18;;;;;;;4.68;52.11;101934.22;5016201;28;20414;-73
2021/12/21 02:40:39;;;;;;;15.48;7.00;;;;;;;4.68;52.29;101931.56;5016416;28;20170;-73
2021/12/21 02:43:06;;;;;;;22.05;8.40;;;;;;;4.69;52.53;101938.59;5015960;28;20077;-73
2021/12/21 02:45:33;;;;;;;14.55;7.65;;;;;;;4.68;52.69;101931.56;5016795;28;20144;-73
2021/12/21 02:47:59;;;;;;;17.17;8.07;;;;;;;4.65;53.16;101930.91;5015230;28;20472;-73
2021/12/21 02:50:26;;;;;;;24.48;9.02;;;;;;;4.61;52.99;101926.72;5015936;28;20489;-73
2021/12/21 02:52:53;;;;;;;19.55;7.95;;;;;;;4.54;53.66;101920.91;5012230;28;20066;-73
2021/12/21 02:55:20;;;;;;;12.23;7.32;;;;;;;4.59;53.10;101924.16;5014633;28;20046;-73
2021/12/21 02:57:49;;;;;;;17.92;7.90;;;;;;;4.70;52.84;101918.19;5016048;28;20106;-75
2021/12/21 03:00:18;;;;;;;20.58;8.20;;;;;;;4.64;52.93;101910.59;5014499;28;20099;-73
2021/12/21 03:02:45;;;;;;;24.55;8.27;;;;;;;4.64;52.97;101918.56;5015232;28;20065;-73
2021/12/21 03:05:11;;;;;;;25.85;8.13;;;;;;;4.81;52.52;101915.72;5016373;28;20093;-73
2021/12/21 03:10:38;;;;;;;24.25;9.50;;;;;;;4.70;52.81;101913.72;5014566;28;20046;-73
2021/12/21 03:15:49;;;;;;;23.27;8.88;;;;;;;4.61;53.28;101916.94;5015073;28;20038;-73
2021/12/21 03:18:15;;;;;;;22.30;8.77;;;;;;;4.57;53.39;101918.91;5016684;28;20050;-73
2021/12/21 03:20:42;;;;;;;24.23;9.40;;;;;;;4.63;53.19;101909.72;5016199;28;20121;-73
2021/12/21 03:23:08;;;;;;;21.42;9.02;;;;;;;4.62;53.22;101910.66;5014310;28;20069;-73
2021/12/21 03:25:35;;;;;;;18.00;9.95;;;;;;;4.60;53.44;101911.72;5016032;28;20073;-73
2021/12/21 03:28:02;;;;;;;22.38;10.48;;;;;;;4.57;53.50;101908.28;5014903;28;20068;-73
2021/12/21 03:30:28;;;;;;;22.20;9.60;;;;;;;4.61;53.34;101908.09;5020227;28;20395;-73
2021/12/21 03:32:55;;;;;;;20.25;10.25;;;;;;;4.49;53.52;101918.53;5014307;28;20129;-73
2021/12/21 03:35:21;;;;;;;22.98;10.57;;;;;;;4.53;53.83;101911.22;5015316;28;20049;-73
2021/12/21 03:37:48;;;;;;;27.15;10.52;;;;;;;4.36;53.87;101911.34;5014431;28;20050;-73
2021/12/21 03:40:14;;;;;;;26.85;11.27;;;;;;;4.36;54.06;101900.72;5015215;28;20073;-73
2021/12/21 03:42:41;;;;;;;20.10;10.50;;;;;;;4.48;53.75;101913.28;5013874;28;20069;-73
2021/12/21 03:45:08;;;;;;;23.63;11.20;;;;;;;4.33;54.05;101913.22;5015158;28;20072;-73
2021/12/21 03:47:34;;;;;;;32.17;11.68;;;;;;;4.34;54.18;101908.75;5015580;28;20132;-73
2021/12/21 03:50:03;;;;;;;22.23;11.55;;;;;;;4.26;54.35;101908.38;5015535;28;20046;-73
2021/12/21 03:52:30;;;;;;;28.33;11.45;;;;;;;4.47;53.56;101906.28;5012447;28;20140;-73
2021/12/21 03:55:01;;;;;;;24.92;11.80;;;;;;;4.31;54.03;101895.66;5013850;28;20477;-73
2021/12/21 03:57:28;;;;;;;25.92;8.82;;;;;;;4.26;54.24;101903.06;5012885;28;20121;-73
2021/12/21 03:59:55;;;;;;;28.23;12.07;;;;;;;4.49;53.65;101899.09;5007878;28;20497;-73
2021/12/21 04:02:24;;;;;;;24.88;10.80;;;;;;;4.51;53.39;101898.03;5015134;28;20070;-73
2021/12/21 04:04:53;;;;;;;23.05;11.82;;;;;;;4.55;53.39;101898.69;5015104;28;20073;-73
2021/12/21 04:07:20;;;;;;;31.67;11.30;;;;;;;4.48;53.55;101906.16;5014745;28;20072;-73
2021/12/21 04:09:48;;;;;;;35.53;12.30;;;;;;;4.40;53.66;101904.94;5014784;28;20109;-73
2021/12/21 04:12:15;;;;;;;35.55;12.98;;;;;;;4.07;54.61;101913.88;5014877;28;20073;-73
2021/12/21 04:14:41;;;;;;;23.48;11.65;;;;;;;4.29;54.11;101898.41;5014131;28;20080;-73
2021/12/21 04:17:20;;;;;;;37.03;13.50;;;;;;;4.45;53.54;101908.16;5013731;28;20052;-74
2021/12/21 04:19:48;;;;;;;26.23;12.32;;;;;;;4.42;54.01;101903.91;5014612;28;20165;-74
2021/12/21 04:22:15;;;;;;;31.63;12.60;;;;;;;4.36;54.02;101906.88;5012639;28;20129;-73
2021/12/21 04:24:42;;;;;;;27.17;12.48;;;;;;;4.36;53.76;101908.69;5014197;28;20128;-73
2021/12/21 04:27:13;;;;;;;30.83;13.57;;;;;;;4.43;53.68;101910.06;5014329;28;20426;-75
2021/12/21 04:29:40;;;;;;;27.15;12.52;;;;;;;4.34;53.80;101904.31;5013337;28;20445;-74
2021/12/21 04:32:06;;;;;;;27.17;12.52;;;;;;;4.45;53.96;101908.16;5014851;28;20088;-73
2021/12/21 04:34:34;;;;;;;34.80;12.98;;;;;;;4.49;53.81;101901.75;4991450;28;20138;-73
2021/12/21 04:37:01;;;;;;;25.00;12.90;;;;;;;4.31;53.94;101909.81;5016686;28;20045;-74
2021/12/21 04:42:23;;;;;;;41.05;14.32;;;;;;;4.50;53.22;101906.09;5021853;28;20500;-73
2021/12/21 04:44:49;;;;;;;30.75;14.50;;;;;;;4.62;53.18;101910.66;5017572;28;20184;-74
2021/12/21 04:47:15;;;;;;;31.33;14.70;;;;;;;4.37;53.74;101905.06;5016984;28;20137;-73
2021/12/21 04:49:42;;;;;;;31.38;14.77;;;;;;;4.46;53.64;101894.81;5017894;28;20056;-73
2021/12/21 04:52:09;;;;;;;29.52;14.57;;;;;;;4.49;53.63;101904.41;5016951;28;20133;-73
2021/12/21 04:54:36;;;;;;;32.15;14.95;;;;;;;4.56;53.56;101905.75;5017104;28;20134;-73
2021/12/21 04:57:03;;;;;;;32.97;14.55;;;;;;;4.28;54.37;101903.84;5018183;28;20057;-73
2021/12/21 04:59:29;;;;;;;32.08;14.10;;;;;;;4.52;53.40;101910.38;5016730;28;20533;-73
2021/12/21 05:01:56;;;;;;;37.17;15.65;;;;;;;4.63;53.34;101907.06;5017450;28;20046;-73
2021/12/21 05:04:22;;;;;;;31.05;13.98;;;;;;;4.52;53.62;101907.72;5015900;28;20497;-73
2021/12/21 05:06:51;;;;;;;31.75;14.55;;;;;;;4.45;53.51;101905.50;5012903;28;20038;-73
2021/12/21 05:09:25;;;;;;;37.05;15.00;;;;;;;4.61;52.93;101908.09;5016231;28;20081;-73
2021/12/21 05:11:56;;;;;;;35.60;15.35;;;;;;;4.57;53.38;101905.63;5014419;28;20502;-73
2021/12/21 05:14:22;;;;;;;33.15;15.90;;;;;;;4.55;53.25;101910.16;5008566;28;20144;-73
2021/12/21 05:16:48;;;;;;;30.85;14.05;;;;;;;4.53;53.33;101913.88;5015412;28;20431;-72
2021/12/21 05:19:15;;;;;;;38.72;18.73;;;;;;;4.40;53.41;101916.41;5015532;28;20073;-73
2021/12/21 05:21:41;;;;;;;45.58;19.40;;;;;;;4.51;53.59;101916.63;5016790;28;20069;-73
2021/12/21 05:24:08;;;;;;;34.80;16.38;;;;;;;4.48;53.49;101922.13;5018197;28;20077;-75
2021/12/21 05:26:34;;;;;;;35.70;16.05;;;;;;;4.34;53.96;101916.72;5018240;28;20073;-73
2021/12/21 05:29:01;;;;;;;40.63;15.80;;;;;;;4.46;53.60;101918.72;5017051;28;20132;-74
2021/12/21 05:31:28;;;;;;;38.35;16.15;;;;;;;4.49;53.10;101915.03;5016160;28;20104;-73
2021/12/21 05:33:54;;;;;;;30.10;15.95;;;;;;;4.56;53.16;101916.38;5017001;28;20530;-73
2021/12/21 05:36:21;;;;;;;37.75;16.85;;;;;;;4.56;53.27;101914.56;5017417;28;20141;-73
2021/12/21 05:38:55;;;;;;;37.08;16.42;;;;;;;4.64;53.08;101918.56;5016794;28;20050;-73
2021/12/21 05:41:28;;;;;;;44.15;17.58;;;;;;;4.57;53.47;101912.75;5017806;28;20073;-73
2021/12/21 05:43:56;;;;;;;40.92;17.13;;;;;;;4.54;52.96;101913.78;5018278;28;20072;-73
2021/12/21 05:46:22;;;;;;;45.10;16.65;;;;;;;4.60;53.01;101911.72;5016491;28;20133;-73
2021/12/21 05:48:51;;;;;;;36.85;16.65;;;;;;;4.56;53.33;101913.72;5015102;28;20077;-73
2021/12/21 05:51:20;;;;;;;37.67;17.85;;;;;;;4.63;52.86;101912.41;5015429;28;20046;-73
2021/12/21 05:53:47;;;;;;;34.88;16.52;;;;;;;4.56;53.25;101916.38;5017109;28;20110;-73
2021/12/21 05:56:14;;;;;;;33.10;17.02;;;;;;;4.68;52.76;101920.94;5015229;28;20498;-73
2021/12/21 05:58:41;;;;;;;50.78;19.90;;;;;;;4.60;52.99;101919.69;5014963;28;20125;-73
2021/12/21 06:01:07;;;;;;;38.90;18.75;;;;;;;4.63;53.09;101928.34;5016763;28;20036;-73
2021/12/21 06:03:34;;;;;;;43.90;18.77;;;;;;;4.42;53.46;101934.94;4997058;28;20077;-73
2021/12/21 06:06:00;;;;;;;38.40;16.77;;;;;;;4.24;54.02;101928.84;5003605;28;20046;-73
2021/12/21 06:08:27;;;;;;;46.25;17.10;;;;;;;4.33;53.44;101931.81;5014416;28;20100;-73
2021/12/21 06:10:55;;;;;;;37.10;17.15;;;;;;;4.43;53.41;101931.31;5016663;28;20125;-74
2021/12/21 06:13:48;;;;;;;34.90;17.95;;;;;;;4.55;52.69;101931.44;5013157;28;20092;-74
2021/12/21 06:25:21;;;;;;;37.38;19.15;;;;;;;4.52;53.16;101939.63;4999945;28;20076;-73
2021/12/21 06:27:20;;;;;;;38.47;17.98;;;;;;;4.61;52.90;101940.00;5016640;28;20057;-73
2021/12/21 06:29:47;;;;;;;37.80;18.73;;;;;;;4.64;52.49;101938.00;5015755;28;20089;-73
2021/12/21 06:32:14;;;;;;;40.15;17.92;;;;;;;4.65;52.76;101937.06;5015004;28;20056;-74
2021/12/21 06:34:41;;;;;;;36.38;18.73;;;;;;;4.64;52.80;101935.34;5014078;28;20593;-74
2021/12/21 06:37:08;;;;;;;35.83;18.23;;;;;;;4.57;53.09;101934.88;5014921;28;20136;-73
2021/12/21 06:39:34;;;;;;;37.85;17.52;;;;;;;4.60;52.72;101938.31;5012857;28;20046;-73
2021/12/21 06:42:02;;;;;;;35.85;17.48;;;;;;;4.63;52.50;101938.97;5014275;28;20493;-73
2021/12/21 06:44:29;;;;;;;37.75;17.38;;;;;;;4.56;52.66;101934.97;5013386;28;20085;-74
2021/12/21 06:52:19;;;;;;;36.30;17.55;;;;;;;4.21;54.02;101937.88;5014526;28;20121;-73
2021/12/21 06:54:46;;;;;;;38.92;18.88;;;;;;;4.35;53.17;101942.38;5013926;28;20045;-73
2021/12/21 06:57:13;;;;;;;35.67;18.02;;;;;;;4.43;52.92;101941.97;5014491;28;20042;-74
2021/12/21 06:59:40;;;;;;;47.53;20.83;;;;;;;4.56;52.76;101943.78;5015594;28;20541;-74
2021/12/21 07:02:08;;;;;;;40.92;18.85;;;;;;;4.52;52.53;101936.97;5015465;28;20129;-73
2021/12/21 07:04:34;;;;;;;36.15;18.30;;;;;;;4.61;52.65;101935.53;5013670;28;20045;-73
2021/12/21 07:07:02;;;;;;;42.70;18.83;;;;;;;4.58;52.87;101944.53;5015062;28;20065;-73
2021/12/21 07:09:36;;;;;;;42.33;19.00;;;;;;;4.58;52.98;101944.53;5016025;28;20069;-73
2021/12/21 07:18:05;;;;;;;37.25;17.77;;;;;;;4.60;52.44;101948.94;5013689;28;20124;-74
2021/12/21 07:20:19;;;;;;;37.50;16.17;;;;;;;4.70;52.36;101945.63;5021658;28;20111;-74
2021/12/21 07:22:46;;;;;;;36.38;17.63;;;;;;;4.71;52.25;101946.47;5016239;28;20493;-74
2021/12/21 07:25:12;;;;;;;33.00;16.58;;;;;;;4.73;52.16;101947.25;5015290;28;20057;-73
2021/12/21 07:27:39;;;;;;;33.50;17.02;;;;;;;4.80;51.83;101945.94;5014807;28;20042;-73
2021/12/21 07:30:07;;;;;;;30.80;16.52;;;;;;;4.58;52.69;101949.84;5014853;28;20123;-73
2021/12/21 07:32:34;;;;;;;37.35;17.60;;;;;;;4.70;52.08;101956.25;4996346;28;20085;-73
2021/12/21 07:35:00;;;;;;;30.08;16.17;;;;;;;4.80;51.53;101959.22;5014776;28;20050;-73
2021/12/21 07:37:27;;;;;;;34.50;16.75;;;;;;;4.72;52.00;101958.81;4996235;28;20495;-73
2021/12/21 07:39:54;;;;;;;37.78;16.38;;;;;;;4.79;51.82;101954.84;5014807;28;20153;-73
2021/12/21 07:42:20;;;;;;;37.05;17.73;;;;;;;4.53;52.29;101953.75;5013860;28;20101;-73
2021/12/21 07:44:47;;;;;;;36.83;16.58;;;;;;;4.75;51.62;101956.81;5011735;28;20045;-73
2021/12/21 07:47:15;;;;;;;36.10;16.70;;;;;;;4.80;51.47;101959.22;5014923;28;20072;-74
2021/12/21 07:49:42;;;;;;;35.25;15.68;;;;;;;4.81;51.31;101959.13;5014280;28;20041;-73
2021/12/21 07:52:10;;;;;;;29.40;15.18;;;;;;;4.70;51.80;101961.59;5014170;28;20050;-73
2021/12/21 07:54:37;;;;;;;33.28;15.38;;;;;;;4.85;51.37;101961.59;5013960;28;20065;-73
2021/12/21 07:57:06;;;;;;;30.20;14.43;;;;;;;4.67;51.93;101968.88;5014958;28;20130;-73
2021/12/21 07:59:34;;;;;;;34.65;15.00;;;;;;;4.72;51.28;101958.81;5014464;28;20053;-73
2021/12/21 08:02:00;;;;;;;32.90;14.98;;;;;;;4.76;50.78;101960.34;5014597;28;20133;-73
2021/12/21 08:04:28;;;;;;;37.67;15.45;;;;;;;4.67;51.08;101956.44;5013548;28;20074;-73
2021/12/21 08:06:58;;;;;;;35.40;14.85;;;;;;;4.70;50.99;101977.53;5015155;28;20105;-73
2021/12/21 08:09:31;;;;;;;34.97;17.27;;;;;;;4.85;51.15;101965.13;5014216;28;20124;-73
2021/12/21 08:12:15;;;;;;;34.40;16.75;;;;;;;4.94;50.60;101953.06;5015652;28;20073;-73
2021/12/21 08:14:47;;;;;;;37.15;17.13;;;;;;;4.88;50.93;101958.75;5018638;28;20474;-73
2021/12/21 08:17:14;;;;;;;34.03;16.95;;;;;;;4.82;51.19;101960.81;5016662;28;20126;-73
2021/12/21 08:19:43;;;;;;;29.98;15.05;;;;;;;4.70;51.56;101953.59;5016350;28;20066;-73
2021/12/21 08:22:12;;;;;;;29.35;14.43;;;;;;;4.89;51.76;101966.63;5014600;28;20125;-73
2021/12/21 08:24:40;;;;;;;32.42;14.00;;;;;;;5.18;52.28;101971.97;5016398;28;20053;-73
2021/12/21 08:27:06;;;;;;;31.25;13.70;;;;;;;5.20;51.18;101970.09;5017302;28;20136;-73
2021/12/21 08:29:33;;;;;;;28.23;13.23;;;;;;;5.01;50.54;101968.56;5016541;28;20066;-73
2021/12/21 08:31:59;;;;;;;30.65;13.98;;;;;;;5.11;50.46;101970.63;5015178;28;20120;-73
2021/12/21 08:34:26;;;;;;;33.67;15.93;;;;;;;5.07;50.01;101975.28;5015741;28;20132;-73
2021/12/21 08:36:53;;;;;;;34.58;15.77;;;;;;;4.83;50.72;101974.97;5016604;28;20050;-73
2021/12/21 08:39:23;;;;;;;45.45;18.63;;;;;;;5.00;50.68;101974.81;5017248;28;20128;-73
2021/12/21 08:41:55;;;;;;;46.75;19.52;;;;;;;4.98;50.54;101973.22;5016882;28;20065;-73
2021/12/21 08:44:26;;;;;;;35.10;17.58;;;;;;;5.09;50.54;101981.38;5017077;28;20117;-73
2021/12/21 08:46:55;;;;;;;40.17;18.45;;;;;;;5.11;50.66;101976.84;5017065;28;20450;-73
2021/12/21 08:49:22;;;;;;;40.72;17.42;;;;;;;5.11;50.62;101973.31;5016919;28;20410;-73
2021/12/21 08:51:48;;;;;;;43.13;17.10;;;;;;;5.11;50.28;101975.97;5014744;28;20049;-73
2021/12/21 08:54:15;;;;;;;32.45;16.58;;;;;;;5.15;49.89;101972.19;5020967;28;20052;-73
2021/12/21 08:56:44;;;;;;;30.85;15.40;;;;;;;5.00;49.81;101973.97;5017209;28;20069;-73
2021/12/21 08:59:10;;;;;;;28.83;14.38;;;;;;;4.68;50.88;101979.41;5016224;28;20445;-74
2021/12/21 09:01:37;;;;;;;36.22;15.38;;;;;;;4.52;51.28;101986.56;5016757;28;21420;-73
2021/12/21 09:04:03;;;;;;;36.90;15.40;;;;;;;4.72;50.54;101980.94;5016225;28;20121;-73
2021/12/21 09:06:31;;;;;;;36.45;16.35;;;;;;;4.69;50.54;101981.13;5016126;28;20049;-73
2021/12/21 09:08:57;;;;;;;35.60;17.13;;;;;;;4.84;50.60;101981.16;5016034;28;20046;-73
2021/12/21 09:11:24;;;;;;;36.95;18.23;;;;;;;4.93;50.22;101980.59;5015490;28;20056;-73
2021/12/21 09:13:51;;;;;;;37.88;19.30;;;;;;;4.88;50.42;101991.53;5025443;28;20462;-73
2021/12/21 09:16:17;;;;;;;42.17;20.13;;;;;;;5.02;49.88;101988.88;5023889;28;20125;-73
2021/12/21 09:18:44;;;;;;;38.33;19.75;;;;;;;5.16;49.71;101990.69;5018002;28;20427;-74
2021/12/21 09:21:11;;;;;;;42.30;19.88;;;;;;;5.14;50.02;101987.25;5017002;28;20061;-73
2021/12/21 09:23:39;;;;;;;39.65;20.88;;;;;;;4.86;51.12;101987.25;5015889;28;20067;-73
2021/12/21 09:26:11;;;;;;;45.50;20.45;;;;;;;4.99;50.49;101988.22;5016513;28;20066;-73
2021/12/21 09:28:38;;;;;;;42.53;20.48;;;;;;;4.94;50.47;101993.81;5014400;28;20049;-72
2021/12/21 09:31:04;;;;;;;36.80;20.05;;;;;;;5.15;49.99;101985.50;5014837;28;20129;-73
2021/12/21 09:33:31;;;;;;;48.15;21.77;;;;;;;4.78;50.74;101991.22;5014227;28;20125;-73
2021/12/21 09:35:57;;;;;;;45.47;22.45;;;;;;;5.20;49.82;101992.22;5010568;28;20125;-73
2021/12/21 09:38:24;;;;;;;46.10;21.63;;;;;;;4.95;50.53;101981.38;5021259;28;20052;-74
2021/12/21 09:40:51;;;;;;;49.78;23.20;;;;;;;5.17;50.16;101981.75;5012315;28;20562;-74
2021/12/21 09:43:18;;;;;;;44.83;22.50;;;;;;;5.25;49.60;101982.16;5014433;28;20042;-74
2021/12/21 09:45:44;;;;;;;48.17;23.00;;;;;;;5.23;49.99;101981.38;5015199;28;20125;-73
2021/12/21 09:48:11;;;;;;;54.38;23.02;;;;;;;5.13;50.31;101990.03;5015889;28;20494;-73
2021/12/21 09:50:38;;;;;;;48.88;24.10;;;;;;;5.20;50.05;101984.25;5016635;28;20046;-73
2021/12/21 09:53:04;;;;;;;48.72;22.67;;;;;;;5.14;49.88;101984.59;5015955;28;20050;-73
2021/12/21 09:55:31;;;;;;;42.83;22.27;;;;;;;5.28;49.78;101989.06;5015135;28;20065;-75
2021/12/21 09:57:57;;;;;;;47.67;21.98;;;;;;;5.28;49.86;101989.97;5015811;28;20129;-74
2021/12/21 10:00:29;;;;;;;57.00;25.27;;;;;;;5.01;50.59;101996.97;5016210;28;20053;-74
2021/12/21 10:03:02;;;;;;;46.83;23.48;;;;;;;5.28;49.61;101997.06;5014455;28;20046;-74
2021/12/21 10:05:31;;;;;;;40.58;20.45;;;;;;;5.07;49.90;101999.22;5013516;28;20054;-74
2021/12/21 10:08:04;;;;;;;39.35;20.17;;;;;;;5.27;49.70;101996.22;5015550;28;20052;-74
2021/12/21 10:10:37;;;;;;;41.03;19.80;;;;;;;5.21;49.76;101998.38;5015735;28;20052;-73
2021/12/21 10:13:19;;;;;;;39.10;18.83;;;;;;;5.19;49.79;101989.66;5015835;28;20069;-73
2021/12/21 10:15:49;;;;;;;;;;;;;;;5.30;49.38;101997.84;5015680;28;20101;-73
2021/12/21 10:18:33;;;;;;;35.28;18.38;;;;;;;5.21;49.71;101999.28;5014444;28;20281;-73
2021/12/21 10:21:03;;;;;;;36.92;18.77;;;;;;;5.14;49.66;101997.91;5014810;28;20129;-73
2021/12/21 10:23:35;;;;;;;38.95;19.00;;;;;;;5.18;49.75;101995.91;5014977;28;20042;-74
2021/12/21 10:26:29;;;;;;;40.30;17.63;;;;;;;5.15;49.71;101996.97;5016475;28;20128;-73
2021/12/21 10:29:00;;;;;;;38.00;18.33;;;;;;;5.24;49.59;101999.06;5014620;28;20061;-74
2021/12/21 10:31:29;;;;;;;35.17;16.92;;;;;;;5.08;50.15;101992.97;5016360;28;20132;-76
2021/12/21 10:33:58;;;;;;;31.33;16.65;;;;;;;5.10;49.83;101993.72;5015319;28;20133;-73
2021/12/21 10:36:26;;;;;;;36.60;17.58;;;;;;;5.22;49.48;101995.66;5015838;28;20058;-73
2021/12/21 10:38:58;;;;;;;37.13;16.60;;;;;;;5.17;49.95;101989.75;5015075;28;20466;-74
2021/12/21 10:41:33;;;;;;;31.45;15.55;;;;;;;4.91;50.58;101993.16;5014117;28;20048;-74
2021/12/21 10:44:04;;;;;;;33.60;15.75;;;;;;;4.91;50.41;101990.50;5013093;28;20066;-74
2021/12/21 10:46:35;;;;;;;28.10;15.18;;;;;;;4.95;50.18;101990.19;5011864;28;20064;-74
2021/12/21 10:49:21;;;;;;;41.60;15.23;;;;;;;4.96;50.07;101988.41;5011673;28;20052;-74
2021/12/21 10:51:53;;;;;;;28.52;14.32;;;;;;;5.05;49.82;101985.19;5011559;28;20121;-74
2021/12/21 10:54:39;;;;;;;29.65;15.68;;;;;;;4.94;50.26;101985.84;5013518;28;20113;-74
2021/12/21 10:57:15;;;;;;;30.73;16.88;;;;;;;5.00;50.27;101981.94;5014391;28;20454;-74
2021/12/21 10:59:45;;;;;;;30.75;15.75;;;;;;;5.08;49.90;101977.03;5014175;28;20050;-75
2021/12/21 11:02:16;;;;;;;33.60;14.55;;;;;;;5.11;49.48;101979.50;5014008;28;20073;-74
2021/12/21 11:04:46;;;;;;;36.77;15.47;;;;;;;5.12;49.64;101983.88;5015316;28;20402;-74
2021/12/21 11:07:28;;;;;;;30.25;14.75;;;;;;;4.90;50.09;101979.00;5014301;28;20338;-74
2021/12/21 11:10:15;;;;;;;;;;;;;;;5.08;49.62;101985.00;5015710;28;20117;-75
2021/12/21 11:13:10;;;;;;;28.15;15.07;;;;;;;4.92;50.19;101986.88;5014753;28;20366;-75
2021/12/21 11:15:41;;;;;;;29.27;15.18;;;;;;;5.03;49.81;101977.28;5013659;28;20061;-77
2021/12/21 11:18:10;;;;;;;28.73;15.23;;;;;;;4.60;50.49;101978.16;5012351;28;20145;-77
2021/12/21 11:20:38;;;;;;;22.38;12.88;;;;;;;4.52;50.48;101991.88;5013874;28;20065;-76
2021/12/21 11:23:05;;;;;;;26.27;13.93;;;;;;;4.69;49.85;101986.44;5012620;28;20085;-77
2021/12/21 11:25:33;;;;;;;26.98;13.73;;;;;;;4.86;49.45;101980.09;5012185;28;20116;-76
2021/12/21 11:28:02;;;;;;;25.65;15.00;;;;;;;5.11;48.73;101982.16;5013037;28;20477;-75
2021/12/21 11:30:31;;;;;;;27.83;15.85;;;;;;;5.04;48.79;101980.81;5012481;28;20073;-76
2021/12/21 11:33:01;;;;;;;30.10;15.73;;;;;;;4.72;49.74;101977.44;5013576;28;20069;-77
2021/12/21 11:38:07;;;;;;;33.58;18.65;;;;;;;5.11;48.40;101966.19;5008079;28;20077;-76
2021/12/21 11:40:43;;;;;;;43.90;23.58;;;;;;;5.03;48.87;101953.34;5012730;28;20069;-74
2021/12/21 11:43:39;;;;;;;25.15;15.40;;;;;;;4.97;49.10;101963.50;5013081;28;20098;-74
2021/12/21 11:46:09;;;;;;;30.85;15.65;;;;;;;4.88;49.58;101959.63;5013318;28;20068;-75
2021/12/21 11:48:49;;;;;;;21.83;10.95;;;;;;;4.92;49.31;101954.97;5009664;28;20080;-76
2021/12/21 11:51:21;;;;;;;32.97;17.33;;;;;;;4.84;49.73;101952.78;5017969;28;20073;-75
2021/12/21 11:53:48;;;;;;;30.17;16.90;;;;;;;5.02;49.21;101949.00;5019462;28;20487;-76
2021/12/21 11:56:20;;;;;;;30.48;17.25;;;;;;;5.28;48.43;101947.38;5019347;28;20145;-75
2021/12/21 11:58:50;;;;;;;29.20;16.55;;;;;;;5.11;48.68;101957.34;5017707;28;20121;-76
2021/12/21 12:01:25;;;;;;;30.88;17.45;;;;;;;4.90;49.33;101955.06;5015945;28;20046;-76
2021/12/21 12:04:06;;;;;;;33.78;20.00;;;;;;;5.14;48.29;101957.16;5016152;28;20058;-77
2021/12/21 12:06:44;;;;;;;27.33;14.70;;;;;;;5.21;47.89;101962.03;5015398;28;20060;-76
2021/12/21 12:09:10;;;;;;;31.88;16.10;;;;;;;5.22;47.92;101949.56;5016756;28;20069;-76
2021/12/21 12:11:39;;;;;;;35.40;17.35;;;;;;;5.10;48.26;101945.84;5016252;28;20049;-77
2021/12/21 12:14:11;;;;;;;26.90;17.40;;;;;;;5.15;47.89;101950.91;5018576;28;20105;-77
2021/12/21 12:16:58;;;;;;;33.08;19.10;;;;;;;4.92;48.41;101955.81;5017442;28;20412;-75
2021/12/21 12:19:35;;;;;;;34.33;18.10;;;;;;;4.15;50.03;101963.94;5012810;28;20050;-76
2021/12/21 12:22:05;;;;;;;30.92;16.45;;;;;;;4.57;48.74;101961.44;5008054;28;20145;-75
2021/12/21 12:24:41;;;;;;;30.55;16.58;;;;;;;4.17;49.73;101948.75;5017619;28;20077;-76